CML2 weather

Quamichan Lake (Raven Field) Airport
Quamichan Lake, British Columbia, Canada

Public forecast

Using degrees Celsius for public forecast. Weather courtesy of forecast.io.

Closest aviation weather report (METAR) to Quamichan Lake (Raven Field) Airport

Closest report is Victoria International Airport, 13.3 nm (24.7 km) SE. Retrieved 2020/04/04 08:00 UTC (35 minutes ago):

CYYJ 040800Z 18002KT 20SM SCT050 BKN210 01/01 A2994 RMK SC3CI3 SLP141

Closest aviation forecast (TAF) to Quamichan Lake (Raven Field) Airport

Closest forecast is Victoria International Airport, 13.3 nm (24.7 km) SE. Retrieved 2020/04/04 06:40 UTC (2 hours ago):

TAF CYYJ 040538Z 0406/0506 VRB03KT P6SM SCT025 SCT070 BKN200 TEMPO 0406/0414 BKN020 BKN060 BKN150 FM041400 VRB03KT P6SM SCT015 BKN120 TEMPO 0414/0422 5SM -SHRA BR BKN012 BECMG 0416/0418 08008KT FM042200 06006KT P6SM SCT020 BKN200 BECMG 0501/0503 29008KT FM050400 29008KT P6SM BKN060 BKN120 RMK NXT FCST BY 041200Z